NCAR-RAP Real-Time Weather Data

Output produced by METARs form (26 May 2022  07:33 UTC)
found at http://weather.rap.ucar.edu/surface/
 
KROA 260725Z 11008KT 3SM BR SCT003 BKN011 OVC018 16/15 A3027 RMK AO2 RAE04 P0002 T01610150 $
KROA 260712Z 11008KT 2 1/2SM BR SCT004 BKN011 OVC016 16/15 A3027 RMK AO2 RAE04 P0001 T01610150 $
KROA 260708Z 11008KT 3SM BR BKN004 BKN011 OVC016 16/15 A3028 RMK AO2 RAE04 P0001 T01610150 $
KROA 260654Z 10004KT 2 1/2SM -RA BR BKN004 OVC011 16/15 A3028 RMK AO2 RAB02 SLP247 P0003 T01610150 $
KROA 260641Z 12004KT 2 1/2SM -RA BR SCT005 OVC009 16/15 A3028 RMK AO2 RAB02 P0002 T01610150 $
KROA 260610Z 12006KT 2 1/2SM -RA BR OVC003 16/15 A3029 RMK AO2 RAB02 P0000 T01610150 $
KROA 260554Z 13004KT 6SM BR OVC003 16/15 A3029 RMK AO2 SLP251 60000 T01610150 10183 20161 55005 $
KROA 260542Z 13006KT 7SM OVC003 16/15 A3029 RMK AO2 T01610150 $
KROA 260524Z 12007KT 10SM OVC004 16/15 A3029 RMK AO2 T01610150 $
KROA 260454Z 13010KT 9SM OVC005 16/15 A3029 RMK AO2 SLP250 T01610150 402000139 $
KROA 260354Z 12009KT 3SM BR BKN007 OVC011 16/15 A3029 RMK AO2 SLP253 T01610150 $
KROA 260254Z 13006KT 5SM BR OVC005 16/15 A3031 RMK AO2 SLP259 60000 T01610150 50002 $
KROA 260233Z 12007KT 7SM OVC007 16/15 A3031 RMK AO2 T01610150 $
KROA 260154Z 13006KT 3SM BR OVC004 16/15 A3031 RMK AO2 SLP260 T01610150 $
KROA 260054Z 12007KT 6SM BR OVC009 17/15 A3030 RMK AO2 DZE40 SLP256 P0000 T01670150
KROA 252354Z 12008KT 6SM -DZ BR SCT009 OVC014 17/15 A3030 RMK AO2 DZB45 SLP257 P0000 60000 T01720150 10200 20172 53002
KROA 252308Z 11008KT 10SM FEW009 BKN014 OVC018 18/15 A3029 RMK AO2 T01780150
KROA 252254Z 12007KT 10SM FEW011 BKN018 OVC028 18/15 A3029 RMK AO2 SLP250 T01780150
KROA 252154Z 11009KT 10SM BKN019 OVC024 19/14 A3029 RMK AO2 SLP252 T01890144
KROA 252054Z 13007KT 10SM OVC026 19/14 A3029 RMK AO2 SLP252 T01940139 55004
KROA 251954Z 12005KT 10SM OVC027 20/14 A3029 RMK AO2 SLP252 T02000139
KROA 251854Z VRB03KT 10SM OVC026 20/13 A3031 RMK AO2 SLP257 T02000133
KROA 251754Z VRB03KT 10SM OVC024 19/13 A3031 RMK AO2 SLP257 60000 T01890133 10189 20139 58010
KROA 251654Z 32004KT 10SM OVC017 18/13 A3033 RMK AO2 SLP265 T01780133
KROA 251639Z 36006KT 10SM OVC015 18/14 A3033 RMK AO2 T01780139
KROA 251554Z 11003KT 10SM OVC011 16/13 A3034 RMK AO2 SLP269 T01610133
KROA 251537Z VRB03KT 10SM OVC010 16/13 A3034 RMK AO2 T01610133
KROA 251454Z 15005KT 9SM BKN007 OVC011 15/13 A3034 RMK AO2 DZE38 SLP270 P0000 60000 T01500133 50006
KROA 251439Z 12005KT 3SM BR BKN006 OVC010 15/13 A3034 RMK AO2 SFC VIS 6 DZE38 P0000 T01500133
KROA 251354Z 20006KT 1SM -DZ OVC006 15/13 A3035 RMK AO2 SFC VIS 8 SLP271 P0000 T01500128
KROA 251323Z 17004KT 1SM -DZ BR OVC005 14/13 A3033 RMK AO2 SFC VIS 4 P0000 T01440133
KROA 251302Z 15004KT 1SM -DZ BR OVC004 14/13 A3032 RMK AO2 SFC VIS 3 P0000 T01440128
KROA 251254Z 16003KT 1SM -DZ BR OVC005 14/13 A3032 RMK AO2 SFC VIS 3 SLP263 P0000 T01440128
KROA 251250Z 16003KT 1SM -DZ BR OVC005 14/13 A3032 RMK AO2 SFC VIS 3 P0000
KROA 251154Z 14006KT 1SM -DZ BR OVC003 14/13 A3031 RMK AO2 SFC VIS 2 1/2 DZB00 SLP261 P0001 60001 70005 T01390128 10156 20139 53014
KROA 251129Z 15006KT 1SM -DZ BR OVC002 14/13 A3031 RMK AO2 SFC VIS 1 3/4 DZB00 P0000 T01390128
KROA 251054Z 16005KT 1/8SM BR OVC003 14/13 A3030 RMK AO2 SFC VIS 3/4 DZB16E41 SLP256 P0000 T01390133
KROA 251050Z 15007KT 1 1/2SM BR OVC003 14/13 A3030 RMK AO2 DZB16E41 P0000
KROA 250954Z 13003KT 10SM OVC003 14/13 A3027 RMK AO2 SLP246 T01440133
KROA 250854Z 14004KT 10SM BKN003 OVC010 14/13 A3027 RMK AO2 SLP245 60000 T01440133 55004
KROA 250754Z 13005KT 10SM BKN003 OVC010 14/13 A3027 RMK AO2 RAB17E30 SLP243 P0000 T01440133
KROA 250728Z 12006KT 3SM -RA BR BKN003 BKN008 OVC013 15/14 A3027 RMK AO2 RAB17 P0000 T01500139
KROA 250720Z 11005KT 2SM -RA BR SCT003 BKN008 OVC013 15/14 A3027 RMK AO2 RAB17 P0000 T01500139
KROA 250654Z 13003KT 10SM SCT005 OVC014 16/14 A3027 RMK AO2 RAE0559 SLP246 P0000 T01560139
KROA 250651Z 12003KT 10SM SCT005 OVC014 16/14 A3027 RMK AO2 RAE0559 P0000
KROA 250622Z 00000KT 10SM BKN004 BKN015 OVC026 16/14 A3028 RMK AO2 RAE0559 P0000 T01560139
KROA 250607Z 00000KT 8SM SCT008 BKN013 OVC025 16/14 A3028 RMK AO2 RAE0559 P0000 T01560144
KROA 250554Z 07004KT 4SM -RA BR BKN010 OVC016 16/14 A3028 RMK AO2 RAB45 CIG 006V013 SLP249 P0001 60001 T01560139 10172 20156 58001
KROA 250537Z 00000KT 10SM BKN010 BKN017 OVC025 16/13 A3029 RMK AO2 CIG 009V012 T01610133
KROA 250521Z 00000KT 10SM FEW011 BKN026 OVC035 16/13 A3030 RMK AO2 T01610133
KROA 250454Z 00000KT 10SM FEW013 SCT018 OVC033 16/13 A3030 RMK AO2 SLP255 T01610133 401830133
KROA 250354Z 00000KT 10SM OVC018 16/13 A3029 RMK AO2 SLP252 T01610128
KROA 250254Z 04004KT 10SM OVC019 16/13 A3029 RMK AO2 SLP250 T01610128 53014
KROA 250154Z 04006KT 10SM OVC021 17/13 A3027 RMK AO2 SLP244 T01670128
KROA 250054Z 03004KT 10SM BKN022 OVC027 17/13 A3026 RMK AO2 SLP241 T01720133
KROA 242354Z 06006KT 10SM OVC020 17/13 A3024 RMK AO2 SLP237 T01720128 10183 20167 53010
KROA 242310Z 03009KT 10SM BKN027 OVC050 17/13 A3023 RMK AO2 T01720133
KROA 242254Z 04008KT 10SM SCT025 SCT034 OVC050 18/13 A3022 RMK AO2 SLP229 T01780133
KROA 242154Z 05007KT 10SM OVC019 18/13 A3021 RMK AO2 SLP224 T01780133
KROA 242122Z 04006KT 10SM BKN023 BKN036 OVC050 18/13 A3021 RMK AO2 T01780133
KROA 242054Z 05008KT 10SM FEW027 BKN036 OVC047 18/13 A3021 RMK AO2 SLP225 T01830133 55002
KROA 241954Z 04007KT 10SM BKN019 OVC026 18/13 A3021 RMK AO2 SLP223 T01780133
KROA 241854Z 02005KT 10SM OVC016 17/13 A3021 RMK AO2 SLP227 T01720128
KROA 241754Z 02006KT 10SM BKN013 OVC021 17/13 A3022 RMK AO2 SLP228 60003 T01670133 10167 20139 51005
KROA 241725Z 02006KT 10SM FEW012 OVC018 16/13 A3022 RMK AO2 T01610128
KROA 241717Z 03005KT 10SM BKN012 OVC019 16/13 A3022 RMK AO2 T01610133
KROA 241654Z 03006KT 10SM FEW009 OVC019 16/13 A3022 RMK AO2 SLP228 T01610133
KROA 241633Z 02007KT 10SM SCT012 OVC019 16/13 A3021 RMK AO2 T01610133
KROA 241554Z 02008KT 10SM BKN011 OVC019 16/13 A3021 RMK AO2 DZE1459 SLP225 P0000 T01560133
KROA 241454Z 04006KT 7SM -DZ SCT008 OVC011 16/13 A3020 RMK AO2 RAE1359DZB02 SLP223 P0000 60003 T01560133 53011
KROA 241402Z 03004KT 3SM -DZ BR BKN009 BKN013 OVC017 15/13 A3019 RMK AO2 RAE1359DZB02 CIG 005V011 P0000 T01500133
KROA 241354Z 02005KT 3SM -RA BR FEW009 OVC015 15/13 A3019 RMK AO2 RAE1255B43DZB1259E43 SLP219 P0001 T01500128
KROA 241332Z 02006KT 5SM -DZ BR FEW009 BKN015 OVC021 15/13 A3019 RMK AO2 RAE1255DZB1259 P0000 T01500128
KROA 241315Z 02009KT 5SM -DZ BR FEW009 BKN014 OVC020 14/13 A3018 RMK AO2 RAE1255DZB1259 P0000 T01440128
KROA 241254Z 01006KT 3SM -RA BR FEW007 SCT015 OVC020 14/13 A3018 RMK AO2 SLP214 P0002 T01440128
KROA 241207Z 36005KT 4SM -RA BR FEW007 OVC015 14/13 A3017 RMK AO2 P0000 T01390128
KROA 241154Z VRB06KT 4SM -RA BR FEW011 OVC017 14/12 A3017 RMK AO2 SLP212 P0003 60103 70319 T01390122 10139 20133 53011
KROA 241107Z 03005KT 4SM -RA BR OVC020 14/12 A3016 RMK AO2 P0001 T01390122
KROA 241054Z 04005KT 2SM -RA BR OVC020 14/12 A3015 RMK AO2 SLP206 P0009 T01390122
KROA 241046Z 03005KT 2SM -RA BR FEW004 FEW009 OVC020 14/12 A3016 RMK AO2 P0008 T01390122
KROA 241038Z 03007KT 3SM -RA BR FEW004 SCT009 OVC020 14/12 A3016 RMK AO2 P0007 T01390122
KROA 241028Z 04004KT 4SM -RA BR SCT004 BKN011 OVC022 14/12 A3015 RMK AO2 P0006 T01390122
KROA 241003Z 00000KT 3SM -RA BR FEW005 BKN017 OVC022 14/12 A3014 RMK AO2 P0002 T01390122
KROA 240954Z 00000KT 2 1/2SM RA BR BKN019 OVC024 14/12 A3014 RMK AO2 SLP202 P0024 T01390122
KROA 240936Z 02004KT 3SM RA BR OVC021 13/12 A3014 RMK AO2 P0018 T01330122
KROA 240854Z 03005KT 2 1/2SM RA BR FEW010 BKN017 OVC024 13/12 A3014 RMK AO2 SLP200 P0025 60067 T01330122 55009
KROA 240844Z 02006KT 2 1/2SM RA BR OVC015 13/12 A3013 RMK AO2 P0020 T01330122
KROA 240833Z 03007KT 3SM RA BR FEW009 OVC015 13/12 A3013 RMK AO2 P0016 T01330122
KROA 240754Z 03007KT 4SM RA BR OVC017 14/12 A3012 RMK AO2 SLP195 P0027 T01390122